Time;durP1;ratioP1;P1;durP2;ratioP2;P2;SDS_P1;SDS_P2;PMS_P1;PMS_P2;Temp;Humidity;BMP_temperature;BMP_pressure;BME280_temperature;BME280_humidity;BME280_pressure;Samples;Min_cycle;Max_cycle;Signal;HPM_P1;HPM_P2
2022/11/05 04:03:23;;;;;;;0.77;0.00;;;9.50;99.90;;;;;;4915086;23;86707;-73
2022/11/05 04:13:22;;;;;;;0.38;0.05;;;9.50;99.90;;;;;;4891082;28;86100;-73
2022/11/05 04:14:04;;;;;;;0.40;0.00;;;9.60;99.80;;;;;;4896588;28;88651;-73
2022/11/05 04:24:06;;;;;;;0.75;0.10;;;9.50;99.40;;;;;;4898884;28;86385;-73
2022/11/05 04:24:43;;;;;;;0.47;0.00;;;9.50;99.90;;;;;;4881605;28;86841;-74
2022/11/05 04:27:10;;;;;;;1.10;0.10;;;9.50;99.90;;;;;;4893561;28;86341;-74
2022/11/05 04:32:20;;;;;;;0.70;0.10;;;9.60;99.60;;;;;;4887004;28;85915;-73
2022/11/05 04:34:45;;;;;;;0.93;0.10;;;9.60;99.70;;;;;;4881172;28;86890;-74
2022/11/05 04:37:11;;;;;;;0.35;0.10;;;9.70;99.40;;;;;;4880391;28;86938;-73
2022/11/05 04:39:36;;;;;;;1.33;0.10;;;9.60;98.70;;;;;;4882265;28;87551;-74
2022/11/05 04:42:02;;;;;;;0.50;0.10;;;9.60;98.90;;;;;;4897310;28;87102;-74
2022/11/05 04:44:28;;;;;;;2.08;0.10;;;9.50;99.00;;;;;;4898990;28;87304;-74
2022/11/05 04:46:53;;;;;;;2.90;0.10;;;9.50;99.50;;;;;;4889857;28;86700;-74
2022/11/05 04:49:19;;;;;;;1.08;0.10;;;9.40;99.90;;;;;;4883411;28;88130;-74
2022/11/05 04:51:45;;;;;;;1.77;0.10;;;9.40;99.90;;;;;;4881074;28;87126;-74
2022/11/05 04:54:10;;;;;;;0.90;0.10;;;9.40;99.40;;;;;;4897473;28;86313;-74
2022/11/05 04:56:36;;;;;;;0.88;0.20;;;9.50;99.50;;;;;;4899504;28;86401;-74
2022/11/05 04:59:02;;;;;;;0.55;0.10;;;9.50;99.70;;;;;;4899327;28;87216;-74
2022/11/05 05:01:27;;;;;;;0.60;0.10;;;9.50;99.20;;;;;;4892497;28;87029;-74
2022/11/05 05:03:53;;;;;;;0.50;0.00;;;9.50;99.50;;;;;;4877080;28;87774;-74
2022/11/05 05:06:20;;;;;;;0.40;0.10;;;9.50;99.70;;;;;;4879527;28;86178;-74
2022/11/05 05:08:47;;;;;;;3.53;0.10;;;9.50;99.70;;;;;;4879088;28;87672;-74
2022/11/05 05:11:15;;;;;;;0.80;0.10;;;9.50;99.70;;;;;;4879288;28;86907;-74
2022/11/05 05:13:41;;;;;;;0.40;0.00;;;9.50;99.90;;;;;;4879179;28;86744;-73
2022/11/05 05:16:08;;;;;;;1.50;0.40;;;9.60;99.30;;;;;;4880120;28;86287;-74
2022/11/05 05:18:34;;;;;;;0.98;0.30;;;9.50;98.90;;;;;;4879429;28;86973;-74
2022/11/05 05:23:48;;;;;;;3.38;0.25;;;9.50;99.80;;;;;;4878365;28;87014;-74
2022/11/05 05:26:15;;;;;;;1.20;0.30;;;9.50;99.60;;;;;;4879348;28;86946;-74
2022/11/05 05:28:40;;;;;;;2.25;0.10;;;9.50;99.80;;;;;;4878985;28;88160;-74
2022/11/05 05:31:06;;;;;;;0.93;0.10;;;9.50;99.70;;;;;;4879523;28;88353;-74
2022/11/05 05:33:32;;;;;;;1.77;0.38;;;9.50;99.90;;;;;;4879186;28;87076;-74
2022/11/05 05:35:58;;;;;;;1.30;0.40;;;9.50;99.90;;;;;;4879325;28;86315;-74
2022/11/05 05:38:24;;;;;;;1.02;0.20;;;9.50;99.90;;;;;;4877830;28;87983;-74
2022/11/05 05:40:50;;;;;;;1.00;0.20;;;9.60;99.50;;;;;;4879407;28;87218;-74
2022/11/05 05:43:16;;;;;;;0.68;0.10;;;9.60;99.00;;;;;;4879792;28;86635;-73
2022/11/05 05:45:42;;;;;;;2.35;0.10;;;9.60;99.20;;;;;;4879857;28;86398;-74
2022/11/05 05:48:08;;;;;;;0.68;0.30;;;9.50;99.40;;;;;;4878837;28;87325;-74
2022/11/05 05:50:34;;;;;;;1.27;0.03;;;9.40;99.80;;;;;;4877125;28;87393;-74
2022/11/05 05:52:59;;;;;;;1.17;0.10;;;9.40;99.90;;;;;;4878120;28;87739;-74
2022/11/05 05:55:25;;;;;;;1.23;0.20;;;9.30;99.90;;;;;;4877349;28;86769;-74
2022/11/05 05:57:51;;;;;;;0.93;0.10;;;9.30;99.90;;;;;;4878737;28;87211;-74
2022/11/05 06:00:16;;;;;;;0.65;0.00;;;9.20;99.90;;;;;;4879015;28;86267;-73
2022/11/05 06:02:42;;;;;;;0.60;0.00;;;9.10;99.90;;;;;;4878385;28;86322;-73
2022/11/05 06:05:08;;;;;;;0.10;0.00;;;9.10;99.90;;;;;;4879381;28;86267;-73
2022/11/05 06:07:34;;;;;;;0.63;0.05;;;9.00;99.90;;;;;;4878838;28;87310;-73
2022/11/05 06:09:59;;;;;;;0.40;0.00;;;8.90;99.90;;;;;;4878362;28;86290;-74
2022/11/05 06:12:27;;;;;;;1.05;0.00;;;8.90;99.90;;;;;;4879503;28;86711;-74
2022/11/05 06:14:53;;;;;;;0.30;0.03;;;9.00;99.90;;;;;;4876166;28;86881;-73
2022/11/05 06:17:18;;;;;;;0.95;0.10;;;9.10;99.90;;;;;;4878460;28;88539;-73
2022/11/05 06:19:44;;;;;;;0.73;0.00;;;9.10;99.90;;;;;;4878731;28;87755;-74
2022/11/05 06:22:10;;;;;;;1.77;0.00;;;9.10;99.90;;;;;;4879649;28;86821;-73
2022/11/05 06:24:35;;;;;;;0.63;0.20;;;9.10;99.90;;;;;;4877410;28;86341;-74
2022/11/05 06:27:01;;;;;;;2.05;0.60;;;9.10;99.90;;;;;;4878688;28;86967;-73
2022/11/05 06:29:27;;;;;;;2.53;0.70;;;9.10;99.90;;;;;;4880107;28;86333;-74
2022/11/05 06:31:52;;;;;;;1.73;0.10;;;9.10;99.90;;;;;;4879703;28;86745;-74
2022/11/05 06:34:18;;;;;;;0.77;0.10;;;9.00;99.90;;;;;;4880644;28;86078;-74
2022/11/05 06:36:44;;;;;;;1.20;0.20;;;9.00;99.90;;;;;;4882978;28;87242;-74
2022/11/05 06:39:10;;;;;;;1.25;0.20;;;9.00;99.90;;;;;;4882344;28;86840;-74
2022/11/05 06:41:36;;;;;;;1.02;0.20;;;9.00;99.90;;;;;;4881806;28;87991;-74
2022/11/05 06:44:02;;;;;;;3.38;0.90;;;9.00;99.90;;;;;;4881214;28;86574;-74
2022/11/05 06:46:27;;;;;;;3.05;1.30;;;8.90;99.90;;;;;;4882265;28;87645;-73
2022/11/05 06:48:53;;;;;;;2.47;0.30;;;9.00;99.90;;;;;;4881991;28;86962;-73
2022/11/05 06:51:19;;;;;;;0.93;0.13;;;9.00;99.90;;;;;;4882356;28;87014;-74
2022/11/05 06:53:44;;;;;;;2.15;0.50;;;9.00;99.90;;;;;;4880986;28;86969;-74
2022/11/05 06:56:10;;;;;;;4.53;0.32;;;9.00;99.90;;;;;;4880020;28;87171;-74
2022/11/05 06:58:36;;;;;;;2.75;0.57;;;8.90;99.90;;;;;;4878083;28;86190;-73
2022/11/05 07:01:08;;;;;;;1.65;0.50;;;9.00;99.90;;;;;;4878358;28;87043;-73
2022/11/05 07:03:36;;;;;;;2.22;0.45;;;9.10;99.90;;;;;;4873441;28;86491;-73
2022/11/05 07:06:03;;;;;;;2.65;0.80;;;9.10;99.90;;;;;;4872813;28;88026;-73
2022/11/05 07:08:36;;;;;;;1.80;0.50;;;9.20;99.90;;;;;;4874036;28;87279;-73
2022/11/05 07:11:03;;;;;;;3.28;0.85;;;9.30;99.90;;;;;;4880795;28;87688;-73
2022/11/05 07:13:29;;;;;;;5.07;0.55;;;9.40;99.90;;;;;;4878893;28;86944;-73
2022/11/05 07:15:55;;;;;;;5.53;0.50;;;9.50;99.90;;;;;;4873499;28;88095;-73
2022/11/05 07:18:21;;;;;;;2.03;0.60;;;9.60;99.90;;;;;;4878383;28;86944;-73
2022/11/05 07:20:48;;;;;;;2.83;0.60;;;9.70;99.90;;;;;;4879172;28;87075;-74
2022/11/05 07:23:14;;;;;;;3.03;1.08;;;9.80;99.90;;;;;;4879533;28;85594;-74
2022/11/05 07:25:41;;;;;;;2.72;0.90;;;9.90;99.90;;;;;;4876986;28;86811;-73
2022/11/05 07:28:07;;;;;;;2.80;1.10;;;9.90;99.90;;;;;;4871599;28;86985;-74
2022/11/05 07:30:34;;;;;;;2.00;0.50;;;10.00;99.90;;;;;;4873350;28;87852;-74
2022/11/05 07:33:00;;;;;;;3.58;0.70;;;10.10;99.90;;;;;;4876220;28;87229;-74
2022/11/05 07:35:26;;;;;;;3.05;1.02;;;10.10;99.90;;;;;;4877016;28;87259;-73
2022/11/05 07:37:53;;;;;;;2.35;0.70;;;10.10;99.90;;;;;;4879417;28;87075;-73
2022/11/05 07:40:19;;;;;;;5.88;0.82;;;10.20;99.90;;;;;;4878712;28;86898;-74
2022/11/05 07:42:48;;;;;;;2.42;0.68;;;10.20;99.90;;;;;;4876080;28;86380;-73
2022/11/05 07:45:14;;;;;;;2.00;0.60;;;10.30;99.90;;;;;;4876415;28;87001;-73
2022/11/05 07:47:55;;;;;;;1.52;0.50;;;10.30;99.70;;;;;;4880298;28;86069;-74
2022/11/05 07:50:22;;;;;;;2.22;0.50;;;10.30;99.40;;;;;;4876578;28;86274;-74
2022/11/05 07:52:49;;;;;;;1.73;0.50;;;10.40;99.40;;;;;;4876862;28;87067;-73
2022/11/05 07:55:16;;;;;;;2.35;0.40;;;10.30;97.90;;;;;;4879401;28;88262;-73
2022/11/05 07:57:44;;;;;;;2.55;0.43;;;10.20;98.40;;;;;;4879124;28;87216;-73
2022/11/05 08:00:12;;;;;;;1.40;0.43;;;10.20;98.30;;;;;;4874157;28;87665;-74
2022/11/05 08:02:38;;;;;;;1.52;0.50;;;10.20;98.30;;;;;;4871263;28;88269;-74
2022/11/05 08:05:05;;;;;;;2.20;0.50;;;10.20;98.20;;;;;;4870200;28;87551;-74
2022/11/05 08:07:30;;;;;;;1.88;0.50;;;10.10;97.50;;;;;;4883683;28;86322;-74
2022/11/05 08:09:56;;;;;;;4.35;0.88;;;10.00;97.80;;;;;;4884596;28;86362;-74
2022/11/05 08:12:22;;;;;;;1.65;0.60;;;9.80;99.30;;;;;;4873454;28;86319;-73
2022/11/05 08:14:48;;;;;;;2.25;0.40;;;9.80;99.20;;;;;;4875119;28;86781;-74
2022/11/05 08:17:13;;;;;;;2.10;0.30;;;9.90;99.90;;;;;;4880509;28;86818;-74
2022/11/05 08:19:39;;;;;;;1.52;0.30;;;9.80;99.80;;;;;;4873124;28;87462;-74
2022/11/05 08:22:05;;;;;;;1.25;0.20;;;9.90;99.50;;;;;;4878185;28;87266;-73
2022/11/05 08:24:30;;;;;;;1.08;0.30;;;10.00;98.90;;;;;;4881693;28;86706;-73
2022/11/05 08:26:56;;;;;;;1.33;0.25;;;10.00;98.00;;;;;;4882431;28;86380;-74
2022/11/05 08:29:22;;;;;;;2.45;0.30;;;10.00;99.20;;;;;;4880916;28;86283;-73
2022/11/05 08:31:47;;;;;;;1.88;0.20;;;10.10;99.10;;;;;;4874164;28;86410;-74
2022/11/05 08:34:13;;;;;;;2.83;0.20;;;10.20;97.50;;;;;;4871455;28;87274;-74
2022/11/05 08:36:42;;;;;;;1.80;0.20;;;10.30;97.60;;;;;;4881943;28;86327;-73
2022/11/05 08:39:08;;;;;;;2.28;0.20;;;10.40;98.30;;;;;;4882362;28;87510;-74
2022/11/05 08:41:34;;;;;;;1.25;0.10;;;10.50;97.70;;;;;;4880130;28;86765;-73
2022/11/05 08:43:59;;;;;;;0.73;0.10;;;10.60;97.50;;;;;;4878638;28;88165;-74
2022/11/05 08:46:25;;;;;;;0.60;0.20;;;10.60;97.40;;;;;;4878877;28;88239;-73
2022/11/05 08:48:51;;;;;;;3.38;0.10;;;10.70;97.10;;;;;;4877356;28;87441;-74
2022/11/05 08:51:17;;;;;;;3.47;0.30;;;10.80;97.30;;;;;;4879712;28;86407;-73
2022/11/05 08:53:43;;;;;;;1.58;0.10;;;10.80;96.40;;;;;;4874317;28;87249;-73
2022/11/05 08:56:08;;;;;;;1.65;0.10;;;10.70;96.80;;;;;;4876601;28;86724;-73
2022/11/05 08:58:34;;;;;;;0.32;0.10;;;10.80;95.90;;;;;;4873477;28;88179;-73
2022/11/05 09:01:03;;;;;;;2.67;0.10;;;10.70;95.70;;;;;;4875050;28;85839;-72
2022/11/05 09:03:28;;;;;;;0.80;0.10;;;10.60;95.80;;;;;;4882236;28;87742;-72
2022/11/05 09:05:54;;;;;;;1.17;0.10;;;10.50;96.10;;;;;;4880728;28;86771;-73
2022/11/05 09:08:20;;;;;;;1.80;0.10;;;10.30;96.20;;;;;;4871449;28;87279;-73
2022/11/05 09:10:48;;;;;;;1.27;0.20;;;10.30;96.50;;;;;;4879978;28;86477;-74
2022/11/05 09:13:14;;;;;;;1.83;0.20;;;10.10;96.60;;;;;;4879556;28;87710;-73
2022/11/05 09:15:40;;;;;;;2.50;0.20;;;10.10;96.90;;;;;;4874169;28;86590;-74
2022/11/05 09:18:08;;;;;;;3.00;0.20;;;10.10;97.60;;;;;;4880212;28;86849;-73
2022/11/05 09:20:35;;;;;;;2.45;0.20;;;10.10;98.00;;;;;;4879329;28;87108;-72
2022/11/05 09:23:01;;;;;;;3.30;0.40;;;10.10;97.80;;;;;;4873863;28;87056;-72
2022/11/05 09:25:27;;;;;;;1.48;0.30;;;10.10;97.80;;;;;;4882146;28;87424;-73
2022/11/05 09:27:53;;;;;;;2.00;0.22;;;10.00;98.10;;;;;;4879336;28;86229;-74
2022/11/05 09:30:18;;;;;;;3.65;0.43;;;10.00;99.10;;;;;;4879133;28;86304;-74
2022/11/05 09:32:44;;;;;;;2.50;0.80;;;10.10;99.60;;;;;;4879161;28;88155;-74
2022/11/05 09:35:10;;;;;;;2.10;0.73;;;10.20;99.00;;;;;;4881032;28;86947;-74
2022/11/05 09:37:36;;;;;;;3.33;0.85;;;10.30;99.40;;;;;;4878407;28;86554;-73
2022/11/05 09:40:03;;;;;;;2.78;1.10;;;10.40;98.50;;;;;;4879716;28;86605;-73
2022/11/05 09:42:38;;;;;;;3.13;1.13;;;10.40;98.10;;;;;;4878418;28;88789;-74
2022/11/05 09:45:13;;;;;;;4.10;1.55;;;10.40;98.30;;;;;;4878968;28;86957;-74
2022/11/05 09:47:43;;;;;;;2.88;1.13;;;10.50;98.80;;;;;;4872858;28;86892;-74
2022/11/05 09:50:17;;;;;;;4.00;1.42;;;10.50;98.90;;;;;;4881873;28;86354;-74
2022/11/05 09:52:43;;;;;;;2.83;1.00;;;10.60;98.20;;;;;;4879148;28;87340;-71
2022/11/05 09:55:26;;;;;;;3.45;0.88;;;10.70;97.70;;;;;;4877753;28;87932;-72
2022/11/05 09:57:59;;;;;;;3.80;1.08;;;10.90;98.30;;;;;;4873104;28;87672;-72
2022/11/05 10:00:25;;;;;;;2.60;0.70;;;11.00;97.80;;;;;;4878906;28;86485;-73
2022/11/05 10:03:05;;;;;;;2.85;0.68;;;11.00;96.50;;;;;;4881470;28;87273;-73
2022/11/05 10:05:32;;;;;;;2.28;0.70;;;11.00;97.80;;;;;;4879039;28;86964;-73
2022/11/05 10:08:04;;;;;;;1.73;0.60;;;11.00;97.80;;;;;;4870570;28;87185;-72
2022/11/05 10:10:48;;;;;;;3.70;0.60;;;11.00;97.00;;;;;;4876176;28;86247;-72
2022/11/05 10:13:36;;;;;;;2.10;0.63;;;10.90;96.80;;;;;;4871913;28;86634;-73
2022/11/05 10:16:26;;;;;;;2.35;0.60;;;10.80;97.50;;;;;;4875710;28;86814;-72
2022/11/05 10:18:59;;;;;;;4.55;0.77;;;10.90;97.90;;;;;;4873862;28;86628;-73
2022/11/05 10:21:25;;;;;;;3.67;0.93;;;11.10;97.80;;;;;;4876209;28;86350;-74
2022/11/05 10:23:51;;;;;;;2.72;0.90;;;11.10;97.20;;;;;;4874134;28;87609;-74
2022/11/05 10:26:25;;;;;;;2.35;0.70;;;11.10;96.90;;;;;;4875959;28;86964;-74
2022/11/05 10:28:52;;;;;;;2.50;0.70;;;11.00;96.30;;;;;;4878614;28;87393;-73
2022/11/05 10:31:20;;;;;;;3.72;0.80;;;11.00;96.90;;;;;;4878545;28;86963;-72
2022/11/05 10:33:46;;;;;;;1.88;0.60;;;11.10;97.50;;;;;;4875011;28;86566;-73
2022/11/05 10:36:20;;;;;;;3.80;0.70;;;11.10;96.80;;;;;;4876703;28;86679;-72
2022/11/05 10:38:46;;;;;;;3.28;0.68;;;11.00;97.00;;;;;;4877720;28;86648;-73
2022/11/05 10:41:17;;;;;;;1.73;0.43;;;11.00;97.00;;;;;;4876867;28;85993;-72
2022/11/05 10:43:49;;;;;;;2.25;0.50;;;11.10;96.60;;;;;;4879965;28;87272;-74
2022/11/05 10:46:18;;;;;;;1.80;0.40;;;11.10;96.80;;;;;;4877527;28;87006;-74
2022/11/05 10:48:50;;;;;;;1.95;0.75;;;11.10;96.10;;;;;;4879202;28;87877;-73
2022/11/05 10:51:17;;;;;;;1.40;0.30;;;11.10;96.70;;;;;;4879942;28;87267;-73
2022/11/05 10:53:51;;;;;;;1.15;0.40;;;11.20;96.10;;;;;;4879880;28;87064;-73
2022/11/05 10:56:33;;;;;;;1.48;0.50;;;11.20;96.00;;;;;;4879625;28;86389;-74
2022/11/05 10:59:00;;;;;;;2.03;0.40;;;11.30;96.30;;;;;;4876597;28;87075;-73
2022/11/05 11:01:27;;;;;;;2.50;0.75;;;11.30;95.90;;;;;;4876364;28;86802;-74
2022/11/05 11:04:14;;;;;;;3.03;0.50;;;11.40;96.00;;;;;;4877510;28;87403;-74
2022/11/05 11:06:46;;;;;;;1.73;0.40;;;11.40;96.00;;;;;;4876896;28;87194;-74
2022/11/05 11:09:25;;;;;;;2.72;0.50;;;11.40;96.30;;;;;;4878009;28;86390;-74
2022/11/05 11:12:24;;;;;;;2.22;0.60;;;11.50;95.10;;;;;;4876398;28;86706;-74
2022/11/05 11:15:12;;;;;;;1.98;0.60;;;11.60;95.90;;;;;;4876934;28;87959;-74
2022/11/05 11:17:37;;;;;;;1.75;0.55;;;11.60;96.00;;;;;;4877372;28;87871;-74
2022/11/05 11:20:32;;;;;;;2.38;0.75;;;11.60;95.40;;;;;;4873320;28;87067;-74
2022/11/05 11:23:11;;;;;;;2.80;0.60;;;11.70;95.20;;;;;;4858392;28;86581;-74
2022/11/05 11:25:56;;;;;;;2.35;0.35;;;11.70;94.40;;;;;;4876571;28;87288;-74
2022/11/05 11:28:42;;;;;;;3.50;0.52;;;11.80;94.60;;;;;;4881333;28;87356;-74
2022/11/05 11:31:16;;;;;;;2.00;0.40;;;11.80;94.60;;;;;;4881933;28;86851;-74
2022/11/05 11:33:46;;;;;;;2.83;0.40;;;11.70;93.90;;;;;;4880885;28;85848;-74
2022/11/05 11:36:14;;;;;;;;;;;11.60;94.80;;;;;;4881504;28;88212;-74
2022/11/05 11:38:41;;;;;;;2.33;0.50;;;11.70;95.20;;;;;;4882922;28;87475;-74
2022/11/05 11:41:10;;;;;;;2.72;0.50;;;11.70;95.00;;;;;;4881529;28;88069;-74
2022/11/05 11:43:39;;;;;;;1.13;0.30;;;11.50;94.40;;;;;;4881309;28;87073;-73
2022/11/05 11:46:16;;;;;;;12.43;6.10;;;11.50;95.60;;;;;;4881421;28;86633;-74
2022/11/05 11:48:48;;;;;;;6.80;3.08;;;11.70;95.00;;;;;;4875735;28;86914;-74
2022/11/05 11:51:43;;;;;;;2.58;0.90;;;11.70;95.30;;;;;;4874608;28;86521;-74
2022/11/05 11:54:20;;;;;;;2.70;0.77;;;11.80;94.60;;;;;;4875176;28;87292;-74
2022/11/05 11:56:47;;;;;;;3.08;0.90;;;11.90;95.30;;;;;;4881478;28;87318;-74
2022/11/05 11:59:25;;;;;;;3.03;0.80;;;12.00;94.90;;;;;;4880940;28;87062;-74
2022/11/05 12:01:50;;;;;;;5.28;0.95;;;12.00;94.10;;;;;;4880180;28;86526;-74
2022/11/05 12:04:44;;;;;;;3.28;0.30;;;12.00;94.00;;;;;;4881023;28;87119;-74
2022/11/05 12:07:19;;;;;;;1.55;0.10;;;12.00;93.60;;;;;;4878248;28;88225;-74
2022/11/05 12:10:18;;;;;;;0.98;0.10;;;11.90;92.60;;;;;;4880916;28;87866;-74
2022/11/05 12:13:03;;;;;;;0.28;0.00;;;11.80;91.70;;;;;;4877878;28;86902;-73
2022/11/05 12:15:39;;;;;;;0.52;0.10;;;11.80;92.30;;;;;;4880743;28;86894;-73
2022/11/05 12:18:12;;;;;;;0.70;0.10;;;11.90;92.80;;;;;;4879369;28;88271;-73
2022/11/05 12:20:51;;;;;;;2.40;0.20;;;12.00;93.20;;;;;;4880571;28;87831;-73
2022/11/05 12:23:33;;;;;;;0.98;0.10;;;12.00;93.40;;;;;;4878489;28;86609;-73
2022/11/05 12:26:01;;;;;;;2.00;0.85;;;12.10;91.80;;;;;;4881038;28;85559;-73
2022/11/05 12:28:36;;;;;;;1.80;0.10;;;12.10;91.40;;;;;;4879716;28;87707;-73
2022/11/05 12:31:08;;;;;;;1.20;0.15;;;12.10;91.60;;;;;;4878841;28;88435;-73
2022/11/05 12:33:55;;;;;;;1.23;0.28;;;12.20;92.50;;;;;;4879190;28;87364;-73
2022/11/05 12:36:42;;;;;;;1.20;0.20;;;12.20;91.90;;;;;;4881060;28;86334;-73
2022/11/05 12:39:14;;;;;;;1.27;0.40;;;12.20;91.60;;;;;;4880428;28;87517;-73
2022/11/05 12:41:55;;;;;;;3.65;0.68;;;12.30;91.30;;;;;;4880421;28;87011;-73
2022/11/05 12:44:39;;;;;;;1.33;0.20;;;12.40;92.20;;;;;;4880729;28;86941;-73
2022/11/05 12:47:46;;;;;;;1.50;0.30;;;12.30;89.40;;;;;;4879013;28;86829;-73
2022/11/05 12:50:21;;;;;;;1.20;0.20;;;12.30;90.40;;;;;;4878572;28;87225;-73
2022/11/05 12:53:11;;;;;;;0.93;0.20;;;12.20;90.00;;;;;;4872967;28;87002;-73
2022/11/05 12:55:40;;;;;;;1.25;0.30;;;12.20;89.30;;;;;;4869913;28;86970;-73
2022/11/05 12:58:18;;;;;;;1.80;0.28;;;12.00;90.20;;;;;;4874843;28;86322;-73
2022/11/05 13:00:50;;;;;;;2.30;0.40;;;12.00;91.80;;;;;;4876401;28;88177;-72
2022/11/05 13:03:28;;;;;;;1.83;0.30;;;12.00;91.00;;;;;;4877189;28;87592;-75
2022/11/05 13:06:27;;;;;;;1.58;0.30;;;12.00;91.20;;;;;;4877546;28;86676;-72
2022/11/05 13:09:08;;;;;;;1.65;0.30;;;12.10;91.10;;;;;;4858833;28;86957;-72
2022/11/05 13:11:53;;;;;;;1.20;0.30;;;12.10;90.60;;;;;;4868002;28;88490;-74
2022/11/05 13:14:41;;;;;;;3.25;0.30;;;12.20;91.80;;;;;;4877879;28;87837;-74
2022/11/05 13:17:24;;;;;;;1.55;0.50;;;12.30;91.80;;;;;;4863245;28;86736;-72
2022/11/05 13:19:58;;;;;;;;;;;12.50;91.60;;;;;;4874348;28;86135;-74
2022/11/05 13:22:32;;;;;;;3.03;0.45;;;12.60;90.90;;;;;;4877148;28;87014;-74
2022/11/05 13:25:17;;;;;;;2.83;0.32;;;12.70;90.70;;;;;;4877003;28;86993;-74
2022/11/05 13:27:46;;;;;;;2.75;0.30;;;12.70;90.00;;;;;;4873639;28;87610;-74
2022/11/05 13:30:23;;;;;;;2.25;0.38;;;12.70;89.80;;;;;;4876563;28;86964;-74
2022/11/05 13:32:58;;;;;;;2.25;0.57;;;12.70;90.00;;;;;;4877660;28;86965;-74
2022/11/05 13:35:34;;;;;;;2.55;0.47;;;12.70;90.30;;;;;;4877781;28;86937;-74
2022/11/05 13:41:05;;;;;;;2.35;0.30;;;12.80;89.80;;;;;;4877044;28;86691;-74
2022/11/05 13:43:53;;;;;;;3.08;0.30;;;12.70;88.90;;;;;;4879159;28;87229;-74
2022/11/05 13:46:30;;;;;;;1.10;0.28;;;12.70;90.60;;;;;;4879546;28;87009;-74
2022/11/05 13:49:11;;;;;;;1.73;0.30;;;12.70;89.80;;;;;;4878885;28;86946;-74
2022/11/05 13:51:44;;;;;;;1.90;0.20;;;12.70;88.90;;;;;;4880358;28;86854;-74
2022/11/05 13:54:28;;;;;;;2.15;0.32;;;12.70;89.80;;;;;;4878344;28;88079;-74
2022/11/05 13:57:23;;;;;;;2.00;0.20;;;12.70;88.10;;;;;;4878526;28;87188;-74
2022/11/05 14:00:02;;;;;;;2.03;0.32;;;12.80;87.70;;;;;;4870263;28;86999;-73
2022/11/05 14:02:37;;;;;;;2.20;0.45;;;12.80;88.20;;;;;;4878782;28;86987;-73
2022/11/05 14:05:05;;;;;;;1.95;0.30;;;12.70;89.30;;;;;;4877689;28;86670;-73
2022/11/05 14:07:44;;;;;;;1.40;0.30;;;12.70;89.50;;;;;;4870953;28;87099;-74
2022/11/05 14:10:23;;;;;;;1.13;0.30;;;12.70;89.80;;;;;;4877904;28;86523;-73
2022/11/05 14:12:51;;;;;;;1.27;0.30;;;12.70;89.40;;;;;;4880912;28;86011;-73
2022/11/05 14:15:24;;;;;;;1.38;0.20;;;12.70;90.40;;;;;;4871516;28;90835;-73
2022/11/05 14:17:57;;;;;;;1.00;0.20;;;12.70;90.30;;;;;;4880047;28;87286;-73
2022/11/05 14:20:31;;;;;;;1.75;0.28;;;12.80;90.10;;;;;;4868775;28;87982;-73
2022/11/05 14:23:21;;;;;;;1.80;0.30;;;12.80;89.80;;;;;;4880281;28;86453;-73
2022/11/05 14:25:54;;;;;;;1.45;0.30;;;12.80;88.80;;;;;;4877431;28;86972;-73
2022/11/05 14:28:37;;;;;;;1.55;0.30;;;12.80;87.40;;;;;;4879223;28;87607;-73
2022/11/05 14:31:24;;;;;;;1.20;0.20;;;12.80;87.50;;;;;;4865933;28;86598;-73
2022/11/05 14:34:00;;;;;;;1.88;0.20;;;12.80;88.50;;;;;;4855281;28;86853;-73
2022/11/05 14:36:31;;;;;;;2.08;0.22;;;12.90;88.80;;;;;;4880060;28;87602;-73
2022/11/05 14:39:26;;;;;;;0.88;0.10;;;13.00;86.90;;;;;;4878307;28;86436;-73
2022/11/05 14:42:10;;;;;;;1.38;0.20;;;13.00;86.80;;;;;;4875422;28;87209;-73
2022/11/05 14:45:12;;;;;;;1.35;0.20;;;12.80;85.20;;;;;;4878704;28;87502;-73
2022/11/05 14:47:43;;;;;;;0.52;0.10;;;12.80;86.20;;;;;;4873021;28;88233;-73
2022/11/05 14:50:11;;;;;;;1.50;0.20;;;12.70;88.30;;;;;;4879897;28;88758;-73
2022/11/05 14:52:39;;;;;;;0.85;0.20;;;12.60;89.50;;;;;;4880114;28;87547;-73
2022/11/05 14:55:21;;;;;;;1.80;0.30;;;12.50;85.80;;;;;;4880238;28;86275;-73
2022/11/05 14:57:53;;;;;;;3.03;1.10;;;12.40;86.40;;;;;;4882523;28;87575;-73
2022/11/05 15:00:28;;;;;;;0.95;0.20;;;12.30;87.00;;;;;;4873093;28;87051;-73
2022/11/05 15:03:21;;;;;;;2.85;0.77;;;12.00;88.20;;;;;;4874197;28;87766;-73
2022/11/05 15:05:46;;;;;;;3.85;1.50;;;11.90;88.20;;;;;;4883399;28;85587;-73
2022/11/05 15:08:47;;;;;;;3.80;1.23;;;11.70;88.00;;;;;;4881917;28;87384;-73
2022/11/05 15:11:29;;;;;;;2.10;0.40;;;11.70;87.70;;;;;;4855092;28;88795;-73
2022/11/05 15:13:54;;;;;;;2.25;0.30;;;11.60;88.00;;;;;;4882772;28;87836;-73
2022/11/05 15:16:28;;;;;;;2.15;0.40;;;11.40;88.70;;;;;;4879083;28;86623;-72
2022/11/05 15:18:56;;;;;;;1.77;0.35;;;11.30;89.10;;;;;;4882087;28;87306;-73
2022/11/05 15:21:23;;;;;;;1.80;0.55;;;11.20;89.70;;;;;;4882036;28;87147;-73
2022/11/05 15:23:55;;;;;;;1.38;0.20;;;11.20;90.40;;;;;;4879289;28;86451;-73
2022/11/05 15:26:27;;;;;;;3.22;1.58;;;11.20;90.60;;;;;;4882649;28;86252;-73
2022/11/05 15:28:54;;;;;;;1.90;0.30;;;11.20;90.00;;;;;;4881825;28;87415;-73
2022/11/05 15:31:39;;;;;;;1.70;0.40;;;11.10;90.60;;;;;;4876260;28;86930;-73
2022/11/05 15:34:17;;;;;;;1.58;0.40;;;11.00;90.90;;;;;;4879177;28;86475;-73
2022/11/05 15:37:19;;;;;;;2.75;0.40;;;10.90;91.00;;;;;;4879860;28;86901;-73
2022/11/05 15:39:47;;;;;;;1.63;0.30;;;10.90;91.70;;;;;;4872210;28;88760;-73
2022/11/05 15:42:26;;;;;;;1.67;0.47;;;11.00;91.50;;;;;;4884594;28;87859;-73
2022/11/05 15:44:59;;;;;;;1.45;0.40;;;11.00;92.10;;;;;;4873696;28;86351;-73
2022/11/05 15:47:29;;;;;;;1.27;0.25;;;11.00;91.90;;;;;;4882109;28;86910;-73
2022/11/05 15:50:00;;;;;;;1.20;0.20;;;11.00;91.80;;;;;;4875243;28;87496;-73
2022/11/05 15:52:35;;;;;;;1.45;0.30;;;11.00;91.80;;;;;;4877106;28;87206;-73
2022/11/05 15:55:08;;;;;;;1.00;0.20;;;11.00;91.50;;;;;;4879135;28;86293;-73
2022/11/05 15:57:35;;;;;;;1.73;0.30;;;11.00;91.80;;;;;;4881452;28;86188;-73
2022/11/05 16:00:06;;;;;;;1.90;0.28;;;11.00;91.60;;;;;;4874847;28;87256;-73
2022/11/05 16:02:35;;;;;;;1.40;0.28;;;11.00;91.70;;;;;;4873933;28;86508;-73
2022/11/05 16:05:05;;;;;;;1.75;0.43;;;10.90;92.30;;;;;;4879436;28;87319;-73
2022/11/05 16:07:32;;;;;;;2.13;0.40;;;10.90;92.70;;;;;;4879290;28;87182;-73
2022/11/05 16:10:00;;;;;;;2.70;0.50;;;10.80;93.30;;;;;;4878767;28;86732;-73
2022/11/05 16:12:35;;;;;;;4.47;0.40;;;10.80;93.80;;;;;;4879857;28;86255;-73
2022/11/05 16:15:03;;;;;;;2.55;0.80;;;10.90;93.40;;;;;;4880935;28;86745;-73
2022/11/05 16:17:52;;;;;;;1.13;0.30;;;10.80;92.80;;;;;;4879324;28;86536;-73
2022/11/05 16:20:18;;;;;;;2.28;0.40;;;10.70;93.10;;;;;;4879689;28;87162;-73
2022/11/05 16:22:49;;;;;;;2.67;0.52;;;10.60;93.70;;;;;;4878532;28;87401;-73
2022/11/05 16:25:42;;;;;;;2.80;0.50;;;10.50;93.50;;;;;;4880336;28;87344;-73
2022/11/05 16:28:28;;;;;;;1.88;0.40;;;10.40;93.60;;;;;;4880143;28;87153;-73
2022/11/05 16:31:00;;;;;;;1.55;0.30;;;10.20;94.00;;;;;;4877992;28;88247;-74
2022/11/05 16:33:31;;;;;;;4.60;0.57;;;10.20;93.30;;;;;;4879554;28;87120;-73
2022/11/05 16:35:57;;;;;;;7.70;1.50;;;10.20;92.80;;;;;;4880614;28;86662;-73
2022/11/05 16:38:23;;;;;;;3.17;0.77;;;10.20;92.80;;;;;;4879139;28;86880;-73
2022/11/05 16:40:49;;;;;;;1.52;0.40;;;10.20;92.80;;;;;;4877757;28;86584;-73
2022/11/05 16:43:20;;;;;;;1.73;0.55;;;10.10;92.80;;;;;;4878357;28;86878;-73
2022/11/05 16:45:46;;;;;;;3.28;0.63;;;10.10;93.20;;;;;;4879853;28;86922;-73
2022/11/05 16:48:13;;;;;;;2.90;1.20;;;10.10;93.60;;;;;;4879588;28;85915;-73
2022/11/05 16:50:39;;;;;;;2.65;0.70;;;10.10;94.40;;;;;;4880002;28;87111;-73
2022/11/05 16:53:05;;;;;;;2.22;0.60;;;10.00;94.60;;;;;;4879770;28;87405;-73
2022/11/05 16:55:32;;;;;;;3.80;0.98;;;10.00;95.00;;;;;;4878798;28;87733;-73
2022/11/05 16:57:58;;;;;;;3.97;0.80;;;10.10;94.70;;;;;;4882787;28;86587;-74
2022/11/05 17:00:24;;;;;;;4.10;1.02;;;10.20;95.10;;;;;;4884360;28;87940;-74
2022/11/05 17:02:50;;;;;;;3.95;1.33;;;10.20;95.20;;;;;;4879401;28;86683;-73
2022/11/05 17:05:25;;;;;;;4.43;1.50;;;10.10;95.30;;;;;;4874453;28;86628;-73
2022/11/05 17:07:52;;;;;;;5.55;1.60;;;10.10;95.70;;;;;;4878786;28;86808;-73
2022/11/05 17:10:19;;;;;;;3.50;0.95;;;10.10;96.10;;;;;;4877605;28;87399;-73
2022/11/05 17:12:45;;;;;;;3.15;1.00;;;10.10;96.10;;;;;;4881515;28;89827;-73
2022/11/05 17:15:16;;;;;;;4.70;0.80;;;10.10;96.00;;;;;;4879614;28;86556;-74
2022/11/05 17:17:42;;;;;;;4.65;0.70;;;10.10;96.20;;;;;;4879594;28;86702;-73
2022/11/05 17:20:36;;;;;;;2.92;0.70;;;10.10;95.90;;;;;;4880252;28;87720;-73
2022/11/05 17:23:02;;;;;;;2.45;0.57;;;10.10;96.20;;;;;;4880635;28;87130;-73
2022/11/05 17:25:28;;;;;;;2.30;0.65;;;10.10;96.10;;;;;;4881454;28;86285;-73
2022/11/05 17:27:54;;;;;;;2.72;0.60;;;10.20;95.90;;;;;;4881080;28;86666;-73
2022/11/05 17:30:21;;;;;;;4.53;1.80;;;10.10;95.70;;;;;;4880629;28;86591;-73
2022/11/05 17:32:47;;;;;;;5.78;2.05;;;10.10;96.20;;;;;;4878839;28;86485;-73
2022/11/05 17:35:13;;;;;;;5.10;1.70;;;10.00;96.10;;;;;;4879647;28;86923;-73